createdAt,value
2019-02-20T03:42:47.455Z,102381.00
2019-02-20T03:44:22.630Z,102385.00
2019-02-20T03:45:57.754Z,102387.00
2019-02-20T03:47:33.110Z,102389.00
2019-02-20T03:49:08.496Z,102387.00
2019-02-20T03:50:44.562Z,102394.00
2019-02-20T03:52:19.670Z,102396.00
2019-02-20T03:53:54.799Z,102388.00
2019-02-20T03:55:29.906Z,102390.00
2019-02-20T03:57:05.004Z,102383.00
2019-02-20T03:58:41.088Z,102393.00
2019-02-20T04:00:16.466Z,102387.00
2019-02-20T04:01:51.591Z,102401.00
2019-02-20T04:03:27.807Z,102392.00
2019-02-20T04:05:02.972Z,102393.00
2019-02-20T04:06:38.078Z,102386.00
2019-02-20T04:08:13.194Z,102390.00
2019-02-20T04:09:48.292Z,102390.00
2019-02-20T04:11:23.399Z,102393.00
2019-02-20T04:12:58.781Z,102388.00
2019-02-20T04:14:33.914Z,102387.00
2019-02-20T04:16:09.015Z,102384.00
2019-02-20T04:17:44.123Z,102377.00
2019-02-20T04:19:19.534Z,102388.00
2019-02-20T04:20:54.701Z,102375.00
2019-02-20T04:22:29.800Z,102375.00
2019-02-20T04:24:04.936Z,102381.00
2019-02-20T04:25:40.021Z,102385.00
2019-02-20T04:27:16.105Z,102385.00
2019-02-20T04:28:51.218Z,102384.00
2019-02-20T04:30:26.329Z,102376.00
2019-02-20T04:32:01.453Z,102383.00
2019-02-20T04:33:36.563Z,102392.00
2019-02-20T04:35:11.697Z,102390.00
2019-02-20T04:36:46.845Z,102393.00
2019-02-20T04:38:21.919Z,102395.00
2019-02-20T04:39:57.026Z,102395.00
2019-02-20T04:41:32.143Z,102394.00
2019-02-20T04:43:07.247Z,102388.00
2019-02-20T04:44:42.674Z,102392.00
2019-02-20T04:46:17.794Z,102392.00
2019-02-20T04:47:52.893Z,102394.00
2019-02-20T04:49:28.615Z,102399.00
2019-02-20T04:51:03.720Z,102388.00
2019-02-20T04:52:38.833Z,102394.00
2019-02-20T04:54:14.069Z,102398.00
2019-02-20T04:55:49.141Z,102401.00
2019-02-20T04:57:24.243Z,102396.00
2019-02-20T04:59:00.608Z,102392.00
2019-02-20T05:00:35.703Z,102395.00
2019-02-20T05:02:10.808Z,102397.00
2019-02-20T05:03:45.919Z,102401.00
2019-02-20T05:05:21.024Z,102406.00
2019-02-20T05:06:56.130Z,102400.00
2019-02-20T05:08:31.247Z,102405.00
2019-02-20T05:10:09.752Z,102401.00
2019-02-20T05:11:44.873Z,102399.00
2019-02-20T05:13:19.966Z,102397.00
2019-02-20T05:14:55.078Z,102403.00
2019-02-20T05:16:30.404Z,102396.00
2019-02-20T05:18:05.564Z,102402.00
2019-02-20T05:19:40.695Z,102408.00
2019-02-20T05:21:15.850Z,102401.00
2019-02-20T05:22:50.976Z,102402.00
2019-02-20T05:24:26.112Z,102399.00
2019-02-20T05:26:01.277Z,102410.00
2019-02-20T05:27:36.409Z,102402.00
2019-02-20T05:29:11.505Z,102401.00
2019-02-20T05:30:46.662Z,102409.00
2019-02-20T05:32:21.723Z,102404.00
2019-02-20T05:33:56.833Z,102413.00
2019-02-20T05:35:31.987Z,102420.00
2019-02-20T05:37:07.192Z,102400.00
2019-02-20T05:38:42.296Z,102400.00
2019-02-20T05:40:17.422Z,102398.00
2019-02-20T05:41:52.518Z,102398.00
2019-02-20T05:43:27.626Z,102401.00
2019-02-20T05:45:02.814Z,102407.00
2019-02-20T05:46:37.928Z,102407.00
2019-02-20T05:48:13.037Z,102407.00
2019-02-20T05:49:48.531Z,102415.00
2019-02-20T05:51:23.623Z,102421.00
2019-02-20T05:52:59.440Z,102431.00
2019-02-20T05:54:35.285Z,102430.00
2019-02-20T05:56:10.424Z,102435.00
2019-02-20T05:57:45.526Z,102430.00
2019-02-20T05:59:20.639Z,102437.00
2019-02-20T06:00:55.766Z,102429.00
2019-02-20T06:02:30.870Z,102426.00
2019-02-20T06:04:06.006Z,102435.00
2019-02-20T06:05:41.096Z,102442.00
2019-02-20T06:07:16.213Z,102435.00
2019-02-20T06:08:51.314Z,102439.00
2019-02-20T06:10:26.423Z,102447.00
2019-02-20T06:12:01.543Z,102449.00
2019-02-20T06:13:36.647Z,102454.00
2019-02-20T06:15:11.764Z,102452.00
2019-02-20T06:16:46.883Z,102457.00
2019-02-20T06:18:21.987Z,102465.00
2019-02-20T06:19:57.119Z,102466.00
2019-02-20T06:21:32.301Z,102460.00
2019-02-20T06:23:07.408Z,102462.00
2019-02-20T06:24:44.314Z,102468.00
2019-02-20T06:26:19.519Z,102475.00
2019-02-20T06:27:54.624Z,102477.00
2019-02-20T06:29:30.057Z,102482.00
2019-02-20T06:31:06.239Z,102481.00
2019-02-20T06:32:41.335Z,102481.00
2019-02-20T06:34:16.503Z,102484.00
2019-02-20T06:35:51.935Z,102492.00
2019-02-20T06:37:27.036Z,102490.00
2019-02-20T06:39:02.148Z,102493.00
2019-02-20T06:40:38.428Z,102492.00
2019-02-20T06:42:13.535Z,102492.00
2019-02-20T06:43:48.640Z,102496.00
2019-02-20T06:45:23.796Z,102494.00
2019-02-20T06:47:00.002Z,102494.00
2019-02-20T06:48:35.111Z,102493.00
2019-02-20T06:50:10.229Z,102497.00
2019-02-20T06:51:45.374Z,102498.00
2019-02-20T06:53:20.449Z,102497.00
2019-02-20T06:54:55.565Z,102495.00
2019-02-20T06:56:30.663Z,102498.00
2019-02-20T06:58:05.778Z,102503.00
2019-02-20T06:59:40.889Z,102517.00
2019-02-20T07:01:16.388Z,102509.00
2019-02-20T07:02:51.505Z,102513.00
2019-02-20T07:04:26.623Z,102523.00
2019-02-20T07:06:45.538Z,102528.00
2019-02-20T07:08:53.936Z,102525.00
2019-02-20T07:11:14.416Z,102520.00
2019-02-20T07:13:03.088Z,102521.00
2019-02-20T07:14:46.119Z,102534.00
2019-02-20T07:16:46.808Z,102529.00
2019-02-20T07:18:29.408Z,102524.00
2019-02-20T07:20:34.857Z,102530.00
2019-02-20T07:22:42.283Z,102535.00
2019-02-20T07:24:42.769Z,102544.00
2019-02-20T07:26:52.272Z,102539.00
2019-02-20T07:28:59.061Z,102547.00
2019-02-20T07:30:34.189Z,102542.00
2019-02-20T07:32:09.302Z,102555.00
2019-02-20T07:33:44.420Z,102545.00
2019-02-20T07:35:19.559Z,102553.00
2019-02-20T07:36:54.669Z,102554.00
2019-02-20T07:38:30.485Z,102563.00
2019-02-20T07:40:07.810Z,102566.00
2019-02-20T07:41:42.939Z,102559.00
2019-02-20T07:43:18.081Z,102566.00
2019-02-20T07:44:53.240Z,102557.00
2019-02-20T07:46:28.598Z,102572.00
2019-02-20T07:48:03.725Z,102583.00
2019-02-20T07:49:38.911Z,102581.00
2019-02-20T07:51:15.041Z,102579.00
2019-02-20T07:52:50.158Z,102585.00
2019-02-20T07:54:26.237Z,102584.00
2019-02-20T07:56:01.371Z,102588.00
2019-02-20T07:57:36.480Z,102577.00
2019-02-20T07:59:11.597Z,102592.00
2019-02-20T08:00:46.999Z,102594.00
2019-02-20T08:02:22.117Z,102591.00
2019-02-20T08:03:57.238Z,102601.00
2019-02-20T08:05:32.370Z,102586.00
2019-02-20T08:07:07.902Z,102595.00
2019-02-20T08:08:43.028Z,102606.00
2019-02-20T08:10:18.177Z,102606.00
2019-02-20T08:11:53.301Z,102610.00
2019-02-20T08:13:28.437Z,102614.00
2019-02-20T08:15:03.864Z,102618.00
2019-02-20T08:16:39.054Z,102609.00
2019-02-20T08:18:14.161Z,102619.00
2019-02-20T08:19:49.285Z,102621.00
2019-02-20T08:21:24.408Z,102612.00
2019-02-20T08:23:00.659Z,102611.00
2019-02-20T08:24:35.830Z,102624.00
2019-02-20T08:26:10.969Z,102622.00
2019-02-20T08:27:46.125Z,102618.00
2019-02-20T08:29:22.291Z,102626.00
2019-02-20T08:30:57.414Z,102629.00
2019-02-20T08:32:32.530Z,102628.00
2019-02-20T08:34:07.650Z,102623.00
2019-02-20T08:35:42.761Z,102631.00
2019-02-20T08:37:19.840Z,102628.00
2019-02-20T08:38:54.711Z,102627.00
2019-02-20T08:40:29.834Z,102638.00
2019-02-20T08:42:04.956Z,102646.00
2019-02-20T08:43:40.076Z,102644.00
2019-02-20T08:45:15.193Z,102644.00
2019-02-20T08:46:50.314Z,102639.00
2019-02-20T08:48:26.554Z,102641.00
2019-02-20T08:50:01.632Z,102640.00
2019-02-20T08:51:38.020Z,102645.00
2019-02-20T08:53:13.144Z,102656.00
2019-02-20T08:54:48.273Z,102647.00
2019-02-20T08:56:23.399Z,102655.00
2019-02-20T08:57:58.520Z,102658.00
2019-02-20T08:59:33.638Z,102654.00
2019-02-20T09:01:08.774Z,102657.00
2019-02-20T09:02:43.898Z,102658.00
2019-02-20T09:04:19.030Z,102662.00
2019-02-20T09:05:54.168Z,102656.00
2019-02-20T09:07:31.008Z,102666.00
2019-02-20T09:09:06.499Z,102659.00
2019-02-20T09:10:41.890Z,102655.00
2019-02-20T09:12:17.007Z,102642.00
2019-02-20T09:13:52.136Z,102659.00
2019-02-20T09:15:27.263Z,102668.00
2019-02-20T09:17:07.844Z,102672.00
2019-02-20T09:18:45.440Z,102663.00
2019-02-20T09:20:21.903Z,102663.00
2019-02-20T09:21:57.349Z,102665.00
2019-02-20T09:23:32.467Z,102671.00
2019-02-20T09:25:19.194Z,102671.00
2019-02-20T09:26:47.683Z,102675.00
2019-02-20T09:28:22.802Z,102678.00
2019-02-20T09:29:57.917Z,102677.00
2019-02-20T09:31:33.074Z,102672.00
2019-02-20T09:33:08.187Z,102673.00
2019-02-20T09:34:43.307Z,102672.00
2019-02-20T09:36:18.429Z,102674.00
2019-02-20T09:37:53.550Z,102672.00
2019-02-20T09:39:34.171Z,102669.00
2019-02-20T09:41:10.756Z,102675.00
2019-02-20T09:42:49.869Z,102678.00
2019-02-20T09:44:25.000Z,102676.00
2019-02-20T09:46:00.140Z,102676.00
2019-02-20T09:47:35.259Z,102673.00
2019-02-20T09:49:10.393Z,102670.00
2019-02-20T09:50:45.532Z,102671.00
2019-02-20T09:52:20.639Z,102681.00
2019-02-20T09:53:55.765Z,102681.00
2019-02-20T09:55:32.011Z,102681.00
2019-02-20T09:57:07.140Z,102675.00
2019-02-20T09:58:42.258Z,102680.00
2019-02-20T10:00:20.560Z,102675.00
2019-02-20T10:01:55.721Z,102698.00
2019-02-20T10:03:31.978Z,102690.00
2019-02-20T10:05:09.705Z,102680.00
2019-02-20T10:06:44.830Z,102679.00
2019-02-20T10:08:19.946Z,102676.00
2019-02-20T10:09:55.072Z,102671.00
2019-02-20T10:11:30.200Z,102684.00
2019-02-20T10:13:05.328Z,102676.00
2019-02-20T10:14:40.488Z,102688.00
2019-02-20T10:16:15.586Z,102681.00
2019-02-20T10:17:50.702Z,102673.00
2019-02-20T10:19:25.825Z,102684.00
2019-02-20T10:21:02.083Z,102683.00
2019-02-20T10:22:37.199Z,102682.00
2019-02-20T10:24:12.394Z,102686.00
2019-02-20T10:25:47.515Z,102687.00
2019-02-20T10:27:22.642Z,102692.00
2019-02-20T10:28:57.781Z,102690.00
2019-02-20T10:30:32.909Z,102689.00
2019-02-20T10:32:08.304Z,102697.00
2019-02-20T10:33:44.784Z,102695.00
2019-02-20T10:35:19.903Z,102688.00
2019-02-20T10:36:55.032Z,102690.00
2019-02-20T10:38:30.145Z,102690.00
2019-02-20T10:40:07.980Z,102694.00
2019-02-20T10:41:43.121Z,102700.00
2019-02-20T10:43:18.236Z,102699.00
2019-02-20T10:44:53.370Z,102697.00
2019-02-20T10:46:28.510Z,102685.00
2019-02-20T10:48:03.626Z,102692.00
2019-02-20T10:49:38.761Z,102704.00
2019-02-20T10:51:13.886Z,102706.00
2019-02-20T10:52:49.018Z,102708.00
2019-02-20T10:54:24.140Z,102698.00
2019-02-20T10:55:59.260Z,102706.00
2019-02-20T10:57:34.392Z,102711.00
2019-02-20T10:59:09.511Z,102711.00
2019-02-20T11:00:45.623Z,102714.00
2019-02-20T11:02:20.770Z,102713.00
2019-02-20T11:03:55.885Z,102711.00
2019-02-20T11:05:31.008Z,102713.00
2019-02-20T11:07:06.135Z,102715.00
2019-02-20T11:08:41.261Z,102718.00
2019-02-20T11:10:16.380Z,102711.00
2019-02-20T11:11:51.499Z,102716.00
2019-02-20T11:13:26.616Z,102721.00
2019-02-20T11:15:02.873Z,102721.00
2019-02-20T11:16:38.069Z,102719.00
2019-02-20T11:18:13.209Z,102718.00
2019-02-20T11:19:48.338Z,102725.00
2019-02-20T11:21:23.721Z,102714.00
2019-02-20T11:22:58.836Z,102713.00
2019-02-20T11:24:35.030Z,102724.00
2019-02-20T11:26:17.758Z,102717.00
2019-02-20T11:27:47.289Z,102721.00
2019-02-20T11:29:22.403Z,102717.00
2019-02-20T11:30:58.775Z,102721.00
2019-02-20T11:32:33.915Z,102714.00
2019-02-20T11:34:09.033Z,102718.00
2019-02-20T11:35:44.153Z,102721.00
2019-02-20T11:37:19.281Z,102711.00
2019-02-20T11:38:54.406Z,102709.00
2019-02-20T11:40:29.519Z,102701.00
2019-02-20T11:42:05.631Z,102701.00
2019-02-20T11:43:40.737Z,102706.00
2019-02-20T11:45:18.785Z,102701.00
2019-02-20T11:46:53.921Z,102695.00
2019-02-20T11:48:29.036Z,102701.00
2019-02-20T11:50:07.788Z,102709.00
2019-02-20T11:51:42.637Z,102699.00
2019-02-20T11:53:18.023Z,102702.00
2019-02-20T11:54:53.515Z,102703.00
2019-02-20T11:56:28.638Z,102703.00
2019-02-20T11:58:03.773Z,102692.00
2019-02-20T11:59:38.887Z,102705.00
2019-02-20T12:01:14.032Z,102705.00
2019-02-20T12:02:49.154Z,102703.00
2019-02-20T12:04:24.264Z,102706.00
2019-02-20T12:05:59.390Z,102700.00
2019-02-20T12:07:34.512Z,102699.00
2019-02-20T12:09:09.905Z,102710.00
2019-02-20T12:10:45.028Z,102698.00
2019-02-20T12:12:20.160Z,102701.00
2019-02-20T12:13:55.286Z,102696.00
2019-02-20T12:15:30.427Z,102703.00
2019-02-20T12:17:05.532Z,102700.00
2019-02-20T12:19:00.082Z,102703.00
2019-02-20T12:20:35.198Z,102694.00
2019-02-20T12:22:10.321Z,102696.00
2019-02-20T12:23:46.513Z,102689.00
2019-02-20T12:25:21.629Z,102696.00
2019-02-20T12:26:56.753Z,102693.00
2019-02-20T12:28:31.864Z,102695.00
2019-02-20T12:30:12.057Z,102702.00
2019-02-20T12:31:52.440Z,102699.00
2019-02-20T12:33:23.988Z,102703.00
2019-02-20T12:34:59.382Z,102702.00
2019-02-20T12:36:34.531Z,102701.00
2019-02-20T12:38:09.965Z,102700.00
2019-02-20T12:39:45.408Z,102702.00
2019-02-20T12:41:20.526Z,102700.00
2019-02-20T12:42:55.649Z,102697.00
2019-02-20T12:44:30.762Z,102695.00
2019-02-20T12:46:05.889Z,102703.00
2019-02-20T12:47:41.014Z,102691.00
2019-02-20T12:49:18.444Z,102701.00
2019-02-20T12:50:53.838Z,102697.00
2019-02-20T12:52:28.942Z,102691.00
2019-02-20T12:54:04.636Z,102691.00
2019-02-20T12:55:39.760Z,102687.00
2019-02-20T12:57:14.891Z,102682.00
2019-02-20T12:58:50.025Z,102686.00
2019-02-20T13:00:25.204Z,102686.00
2019-02-20T13:02:00.320Z,102690.00
2019-02-20T13:03:35.440Z,102691.00
2019-02-20T13:05:10.860Z,102685.00
2019-02-20T13:06:45.995Z,102683.00
2019-02-20T13:08:21.379Z,102686.00
2019-02-20T13:09:56.491Z,102689.00
2019-02-20T13:11:31.605Z,102683.00
2019-02-20T13:13:06.734Z,102693.00
2019-02-20T13:14:41.851Z,102687.00
2019-02-20T13:16:16.972Z,102673.00
2019-02-20T13:17:53.068Z,102682.00
2019-02-20T13:19:28.183Z,102682.00
2019-02-20T13:21:03.299Z,102677.00
2019-02-20T13:22:38.494Z,102668.00
2019-02-20T13:24:13.866Z,102673.00
2019-02-20T13:25:48.993Z,102681.00
2019-02-20T13:27:24.105Z,102688.00
2019-02-20T13:28:59.228Z,102681.00
2019-02-20T13:30:34.983Z,102680.00
2019-02-20T13:32:10.100Z,102685.00
2019-02-20T13:33:45.220Z,102680.00
2019-02-20T13:35:20.332Z,102699.00
2019-02-20T13:36:55.582Z,102692.00
2019-02-20T13:38:30.650Z,102690.00
2019-02-20T13:40:09.073Z,102693.00
2019-02-20T13:41:44.542Z,102694.00
2019-02-20T13:43:19.682Z,102685.00
2019-02-20T13:44:55.073Z,102693.00
2019-02-20T13:46:30.197Z,102694.00
2019-02-20T13:48:05.321Z,102691.00
2019-02-20T13:49:40.434Z,102693.00
2019-02-20T13:51:17.652Z,102705.00
2019-02-20T13:52:52.812Z,102690.00
2019-02-20T13:54:27.975Z,102699.00
2019-02-20T13:56:03.090Z,102694.00
2019-02-20T13:57:38.217Z,102698.00
2019-02-20T13:59:14.305Z,102702.00
2019-02-20T14:00:49.429Z,102703.00
2019-02-20T14:02:24.540Z,102701.00
2019-02-20T14:03:59.665Z,102705.00
2019-02-20T14:05:35.404Z,102699.00
2019-02-20T14:07:10.523Z,102703.00
2019-02-20T14:08:45.647Z,102702.00
2019-02-20T14:10:20.763Z,102703.00
2019-02-20T14:11:56.247Z,102704.00
2019-02-20T14:13:31.680Z,102707.00
2019-02-20T14:15:10.193Z,102695.00
2019-02-20T14:16:45.317Z,102711.00
2019-02-20T14:18:20.710Z,102696.00
2019-02-20T14:19:55.826Z,102702.00
2019-02-20T14:21:30.938Z,102702.00
2019-02-20T14:23:06.850Z,102710.00
2019-02-20T14:24:42.055Z,102702.00
2019-02-20T14:26:17.177Z,102704.00
2019-02-20T14:27:52.290Z,102708.00
2019-02-20T14:29:27.417Z,102709.00
2019-02-20T14:31:02.816Z,102702.00
2019-02-20T14:32:37.923Z,102703.00
2019-02-20T14:34:14.123Z,102697.00
2019-02-20T14:35:49.537Z,102710.00
2019-02-20T14:37:25.625Z,102708.00
2019-02-20T14:39:01.130Z,102701.00
2019-02-20T14:40:37.929Z,102704.00
2019-02-20T14:42:14.389Z,102697.00
2019-02-20T14:43:49.517Z,102697.00
2019-02-20T14:45:24.639Z,102694.00
2019-02-20T14:46:59.750Z,102689.00
2019-02-20T14:48:35.703Z,102691.00
2019-02-20T14:50:13.858Z,102694.00
2019-02-20T14:51:50.148Z,102685.00
2019-02-20T14:53:25.275Z,102691.00
2019-02-20T14:55:00.392Z,102688.00
2019-02-20T14:56:35.774Z,102693.00
2019-02-20T14:58:11.971Z,102698.00
2019-02-20T14:59:47.367Z,102692.00
2019-02-20T15:01:22.496Z,102693.00
2019-02-20T15:02:57.611Z,102698.00
2019-02-20T15:04:32.785Z,102700.00
2019-02-20T15:06:07.897Z,102699.00
2019-02-20T15:07:43.012Z,102697.00
2019-02-20T15:09:18.145Z,102697.00
2019-02-20T15:10:53.246Z,102695.00
2019-02-20T15:12:28.438Z,102698.00
2019-02-20T15:14:03.556Z,102691.00
2019-02-20T15:15:38.675Z,102700.00
2019-02-20T15:17:13.791Z,102702.00
2019-02-20T15:18:48.924Z,102705.00
2019-02-20T15:20:25.004Z,102712.00
2019-02-20T15:22:00.123Z,102709.00
2019-02-20T15:23:35.246Z,102712.00
2019-02-20T15:25:11.010Z,102708.00
2019-02-20T15:26:46.168Z,102710.00
2019-02-20T15:28:21.516Z,102710.00
2019-02-20T15:29:56.638Z,102709.00
2019-02-20T15:31:33.979Z,102706.00
2019-02-20T15:33:08.559Z,102708.00
2019-02-20T15:34:44.023Z,102705.00
2019-02-20T15:36:19.147Z,102706.00
2019-02-20T15:37:54.273Z,102709.00
2019-02-20T15:39:29.387Z,102707.00
2019-02-20T15:41:04.514Z,102716.00
2019-02-20T15:42:39.628Z,102717.00
2019-02-20T15:44:15.727Z,102718.00
2019-02-20T15:45:51.115Z,102717.00
2019-02-20T15:47:26.245Z,102719.00
2019-02-20T15:49:01.371Z,102725.00
2019-02-20T15:50:36.491Z,102720.00
2019-02-20T15:52:11.617Z,102723.00
2019-02-20T15:53:46.726Z,102725.00
2019-02-20T15:55:21.844Z,102724.00
2019-02-20T15:56:56.961Z,102730.00
2019-02-20T15:58:33.424Z,102730.00
2019-02-20T16:00:17.406Z,102725.00
2019-02-20T16:01:52.515Z,102726.00
2019-02-20T16:03:27.628Z,102729.00
2019-02-20T16:05:02.759Z,102729.00
2019-02-20T16:06:39.217Z,102730.00
2019-02-20T16:08:14.336Z,102734.00
2019-02-20T16:09:49.455Z,102728.00
2019-02-20T16:11:24.597Z,102732.00
2019-02-20T16:12:59.723Z,102730.00
2019-02-20T16:14:34.849Z,102729.00
2019-02-20T16:16:10.039Z,102734.00
2019-02-20T16:17:45.258Z,102736.00
2019-02-20T16:19:20.829Z,102734.00
2019-02-20T16:20:55.944Z,102737.00
2019-02-20T16:22:31.064Z,102744.00
2019-02-20T16:24:06.186Z,102740.00
2019-02-20T16:25:41.298Z,102733.00
2019-02-20T16:27:16.420Z,102741.00
2019-02-20T16:28:51.539Z,102741.00
2019-02-20T16:30:26.655Z,102739.00
2019-02-20T16:32:02.050Z,102744.00
2019-02-20T16:33:37.252Z,102746.00
2019-02-20T16:35:14.019Z,102744.00
2019-02-20T16:36:49.375Z,102738.00
2019-02-20T16:38:24.497Z,102739.00
2019-02-20T16:39:59.879Z,102737.00
2019-02-20T16:41:34.994Z,102748.00
2019-02-20T16:43:10.368Z,102738.00
2019-02-20T16:44:45.778Z,102741.00
2019-02-20T16:46:21.962Z,102745.00
2019-02-20T16:47:57.073Z,102736.00
2019-02-20T16:49:32.208Z,102739.00
2019-02-20T16:51:09.425Z,102734.00
2019-02-20T16:52:44.810Z,102744.00
2019-02-20T16:54:19.932Z,102744.00
2019-02-20T16:55:55.752Z,102738.00
2019-02-20T16:57:31.023Z,102754.00
2019-02-20T16:59:06.153Z,102751.00
2019-02-20T17:00:41.261Z,102756.00
2019-02-20T17:02:16.481Z,102761.00
2019-02-20T17:03:52.577Z,102757.00
2019-02-20T17:05:27.971Z,102761.00
2019-02-20T17:07:03.086Z,102763.00
2019-02-20T17:08:38.462Z,102764.00
2019-02-20T17:10:15.008Z,102766.00
2019-02-20T17:11:50.124Z,102770.00
2019-02-20T17:13:25.257Z,102765.00
2019-02-20T17:15:00.384Z,102770.00
2019-02-20T17:16:35.750Z,102771.00
2019-02-20T17:18:10.874Z,102771.00
2019-02-20T17:19:46.282Z,102769.00
2019-02-20T17:21:21.403Z,102766.00
2019-02-20T17:22:56.697Z,102777.00
2019-02-20T17:24:33.369Z,102773.00
2019-02-20T17:26:09.931Z,102781.00
2019-02-20T17:27:45.045Z,102785.00
2019-02-20T17:29:20.161Z,102782.00
2019-02-20T17:30:55.276Z,102778.00
2019-02-20T17:32:30.400Z,102783.00
2019-02-20T17:34:05.509Z,102789.00
2019-02-20T17:35:40.664Z,102785.00
2019-02-20T17:37:15.785Z,102787.00
2019-02-20T17:38:51.450Z,102792.00
2019-02-20T17:40:26.646Z,102788.00
2019-02-20T17:42:01.761Z,102788.00
2019-02-20T17:43:36.879Z,102789.00
2019-02-20T17:45:19.365Z,102776.00
2019-02-20T17:46:54.755Z,102791.00
2019-02-20T17:48:29.871Z,102795.00
2019-02-20T17:50:08.910Z,102801.00
2019-02-20T17:51:44.028Z,102800.00
2019-02-20T17:53:19.159Z,102794.00
2019-02-20T17:54:54.656Z,102795.00
2019-02-20T17:56:29.767Z,102801.00
2019-02-20T17:58:05.150Z,102801.00
2019-02-20T17:59:41.506Z,102802.00
2019-02-20T18:01:16.785Z,102803.00
2019-02-20T18:02:51.899Z,102799.00
2019-02-20T18:04:27.025Z,102803.00
2019-02-20T18:06:02.150Z,102802.00
2019-02-20T18:07:37.265Z,102802.00
2019-02-20T18:09:12.452Z,102807.00
2019-02-20T18:10:47.837Z,102807.00
2019-02-20T18:12:22.953Z,102806.00
2019-02-20T18:13:58.070Z,102806.00
2019-02-20T18:15:33.199Z,102803.00
2019-02-20T18:17:08.675Z,102806.00
2019-02-20T18:18:43.792Z,102811.00
2019-02-20T18:20:18.960Z,102801.00
2019-02-20T18:21:54.023Z,102800.00
2019-02-20T18:23:29.142Z,102809.00
2019-02-20T18:25:05.271Z,102812.00
2019-02-20T18:37:43.448Z,102815.00
2019-02-20T18:39:08.623Z,102808.00
2019-02-20T18:40:45.385Z,102803.00
2019-02-20T18:42:22.124Z,102809.00
2019-02-20T18:46:18.952Z,102821.00
2019-02-20T18:47:54.312Z,102827.00
2019-02-20T18:49:39.057Z,102825.00
2019-02-20T18:51:21.184Z,102816.00
2019-02-20T18:53:39.924Z,102828.00
2019-02-20T18:55:22.936Z,102829.00
2019-02-20T18:57:44.598Z,102814.00
2019-02-20T18:58:59.373Z,102829.00
2019-02-20T19:00:41.876Z,102834.00
2019-02-20T19:02:22.064Z,102825.00
2019-02-20T19:03:57.494Z,102827.00
2019-02-20T19:05:33.690Z,102826.00
2019-02-20T19:07:12.367Z,102823.00
2019-02-20T19:08:51.371Z,102807.00
2019-02-20T19:10:37.133Z,102821.00
2019-02-20T19:12:45.523Z,102819.00
2019-02-20T19:14:49.409Z,102829.00
2019-02-20T19:17:16.234Z,102820.00
2019-02-20T19:19:12.808Z,102823.00
2019-02-20T19:21:02.060Z,102828.00
2019-02-20T19:23:12.981Z,102836.00
2019-02-20T19:25:18.170Z,102836.00
2019-02-20T19:27:32.804Z,102829.00
2019-02-20T19:29:40.588Z,102832.00
2019-02-20T19:31:37.100Z,102837.00
2019-02-20T19:33:22.919Z,102835.00
2019-02-20T19:35:33.620Z,102842.00
2019-02-20T19:46:51.074Z,102845.00
2019-02-20T19:49:33.601Z,102831.00
2019-02-20T19:52:10.106Z,102847.00
2019-02-20T19:53:58.928Z,102853.00
2019-02-20T19:55:57.875Z,102853.00
2019-02-20T19:57:52.726Z,102844.00
2019-02-20T19:59:52.158Z,102842.00
2019-02-20T20:01:51.282Z,102836.00
2019-02-20T20:03:52.449Z,102840.00
2019-02-20T20:05:44.141Z,102840.00
2019-02-20T20:07:48.839Z,102846.00
2019-02-20T20:09:34.092Z,102849.00
2019-02-20T20:11:44.618Z,102847.00
2019-02-20T20:13:47.564Z,102853.00
2019-02-20T20:16:09.740Z,102854.00
2019-02-20T20:18:29.570Z,102857.00
2019-02-20T20:20:40.731Z,102863.00
2019-02-20T20:22:55.080Z,102854.00
2019-02-20T20:24:37.455Z,102859.00
2019-02-20T20:26:25.988Z,102860.00
2019-02-20T20:28:14.957Z,102862.00
2019-02-20T20:30:33.756Z,102861.00
2019-02-20T20:32:39.190Z,102856.00
2019-02-20T20:34:40.414Z,102859.00
2019-02-20T20:36:38.476Z,102856.00
2019-02-20T20:38:44.887Z,102853.00
2019-02-20T20:41:04.873Z,102858.00
2019-02-20T20:42:51.911Z,102859.00
2019-02-20T20:45:09.569Z,102854.00
2019-02-20T20:47:02.065Z,102852.00
2019-02-20T20:48:44.642Z,102847.00
2019-02-20T20:51:12.410Z,102850.00
2019-02-20T20:53:10.007Z,102851.00
2019-02-20T20:55:06.148Z,102855.00
2019-02-20T20:56:57.295Z,102851.00
2019-02-20T20:58:51.407Z,102849.00
2019-02-20T21:01:07.153Z,102848.00
2019-02-20T21:02:47.040Z,102840.00
2019-02-20T21:04:32.775Z,102847.00
2019-02-20T21:06:41.180Z,102844.00
2019-02-20T21:08:26.581Z,102847.00
2019-02-20T21:10:31.869Z,102844.00
2019-02-20T21:12:31.147Z,102843.00
2019-02-20T21:14:41.151Z,102833.00
2019-02-20T21:16:25.245Z,102840.00
2019-02-20T21:18:33.562Z,102842.00
2019-02-20T21:20:22.698Z,102832.00
2019-02-20T21:22:18.226Z,102838.00
2019-02-20T21:24:20.716Z,102833.00
2019-02-20T21:26:29.425Z,102837.00
2019-02-20T21:28:24.563Z,102839.00
2019-02-20T21:30:42.453Z,102841.00
2019-02-20T21:32:40.323Z,102837.00
2019-02-20T21:34:45.888Z,102844.00
2019-02-20T21:36:28.686Z,102840.00
2019-02-20T21:38:11.407Z,102839.00
2019-02-20T21:40:21.032Z,102843.00
2019-02-20T21:42:18.593Z,102844.00
2019-02-20T21:44:21.721Z,102846.00
2019-02-20T21:46:22.589Z,102856.00
2019-02-20T21:48:18.928Z,102847.00
2019-02-20T21:50:13.240Z,102848.00
2019-02-20T21:52:08.368Z,102851.00
2019-02-20T21:54:05.891Z,102849.00
2019-02-20T21:56:09.585Z,102856.00
2019-02-20T21:58:18.588Z,102853.00
2019-02-20T22:00:27.733Z,102854.00
2019-02-20T22:02:22.944Z,102840.00
2019-02-20T22:04:28.299Z,102844.00
2019-02-20T22:06:25.633Z,102842.00
2019-02-20T22:08:14.627Z,102852.00
2019-02-20T22:10:30.301Z,102848.00
2019-02-20T22:12:38.133Z,102838.00
2019-02-20T22:14:26.971Z,102855.00
2019-02-20T22:16:39.944Z,102856.00
2019-02-20T22:18:50.755Z,102849.00
2019-02-20T22:20:33.687Z,102851.00
2019-02-20T22:22:49.399Z,102852.00
2019-02-20T22:24:44.081Z,102852.00
2019-02-20T22:26:53.734Z,102848.00
2019-02-20T22:28:42.620Z,102851.00
2019-02-20T22:30:28.151Z,102853.00
2019-02-20T22:32:28.597Z,102848.00
2019-02-20T22:34:38.076Z,102853.00
2019-02-20T22:36:32.423Z,102857.00
2019-02-20T22:38:27.392Z,102858.00
2019-02-20T22:40:47.524Z,102855.00
2019-02-20T22:42:36.221Z,102853.00
2019-02-20T22:45:06.191Z,102849.00
2019-02-20T22:47:00.726Z,102849.00
2019-02-20T22:49:05.547Z,102848.00
2019-02-20T22:51:08.311Z,102848.00
2019-02-20T22:52:53.594Z,102847.00
2019-02-20T22:54:44.938Z,102846.00
2019-02-20T22:57:02.850Z,102844.00
2019-02-20T22:59:03.940Z,102850.00
2019-02-20T23:01:09.412Z,102854.00
2019-02-20T23:03:22.879Z,102845.00
2019-02-20T23:05:27.172Z,102856.00
2019-02-20T23:07:19.031Z,102855.00
2019-02-20T23:09:34.950Z,102855.00
2019-02-20T23:11:57.587Z,102853.00